sensor_id;sensor_type;location;lat;lon;timestamp;P1;durP1;ratioP1;P2;durP2;ratioP2
9218;SDS011;4644;48.858;9.184;2023-06-10T00:01:45;5.47;;;4.97;;
9218;SDS011;4644;48.858;9.184;2023-06-10T00:04:13;6.65;;;5.60;;
9218;SDS011;4644;48.858;9.184;2023-06-10T00:06:41;5.72;;;5.13;;
9218;SDS011;4644;48.858;9.184;2023-06-10T00:09:09;5.75;;;5.25;;
9218;SDS011;4644;48.858;9.184;2023-06-10T00:11:36;5.45;;;4.95;;
9218;SDS011;4644;48.858;9.184;2023-06-10T00:14:04;6.10;;;5.50;;
9218;SDS011;4644;48.858;9.184;2023-06-10T00:16:32;6.05;;;5.45;;
9218;SDS011;4644;48.858;9.184;2023-06-10T00:19:01;5.60;;;5.10;;
9218;SDS011;4644;48.858;9.184;2023-06-10T00:21:28;5.80;;;5.30;;
9218;SDS011;4644;48.858;9.184;2023-06-10T00:24:02;5.63;;;5.15;;
9218;SDS011;4644;48.858;9.184;2023-06-10T00:26:30;5.83;;;5.10;;
9218;SDS011;4644;48.858;9.184;2023-06-10T00:28:57;6.28;;;5.32;;
9218;SDS011;4644;48.858;9.184;2023-06-10T00:31:24;5.60;;;5.10;;
9218;SDS011;4644;48.858;9.184;2023-06-10T00:33:53;5.60;;;5.00;;
9218;SDS011;4644;48.858;9.184;2023-06-10T00:36:20;6.03;;;5.28;;
9218;SDS011;4644;48.858;9.184;2023-06-10T00:38:47;5.85;;;5.32;;
9218;SDS011;4644;48.858;9.184;2023-06-10T00:41:14;5.80;;;5.20;;
9218;SDS011;4644;48.858;9.184;2023-06-10T00:43:41;5.55;;;5.05;;
9218;SDS011;4644;48.858;9.184;2023-06-10T00:46:08;5.63;;;5.13;;
9218;SDS011;4644;48.858;9.184;2023-06-10T00:48:36;5.78;;;5.28;;
9218;SDS011;4644;48.858;9.184;2023-06-10T00:51:05;6.13;;;5.57;;
9218;SDS011;4644;48.858;9.184;2023-06-10T00:53:34;6.13;;;5.53;;
9218;SDS011;4644;48.858;9.184;2023-06-10T00:56:02;5.90;;;5.40;;
9218;SDS011;4644;48.858;9.184;2023-06-10T00:58:30;7.00;;;5.68;;
9218;SDS011;4644;48.858;9.184;2023-06-10T01:00:57;5.57;;;5.07;;
9218;SDS011;4644;48.858;9.184;2023-06-10T01:03:24;5.97;;;5.47;;
9218;SDS011;4644;48.858;9.184;2023-06-10T01:05:53;6.57;;;5.97;;
9218;SDS011;4644;48.858;9.184;2023-06-10T01:08:28;5.90;;;5.40;;
9218;SDS011;4644;48.858;9.184;2023-06-10T01:11:04;6.35;;;5.75;;
9218;SDS011;4644;48.858;9.184;2023-06-10T01:13:38;5.60;;;5.10;;
9218;SDS011;4644;48.858;9.184;2023-06-10T01:16:07;5.93;;;5.43;;
9218;SDS011;4644;48.858;9.184;2023-06-10T01:18:35;6.10;;;5.60;;
9218;SDS011;4644;48.858;9.184;2023-06-10T01:21:04;6.10;;;5.50;;
9218;SDS011;4644;48.858;9.184;2023-06-10T01:23:34;5.90;;;5.40;;
9218;SDS011;4644;48.858;9.184;2023-06-10T01:26:02;5.80;;;5.30;;
9218;SDS011;4644;48.858;9.184;2023-06-10T01:28:36;6.25;;;5.65;;
9218;SDS011;4644;48.858;9.184;2023-06-10T01:31:09;5.67;;;5.10;;
9218;SDS011;4644;48.858;9.184;2023-06-10T01:33:43;6.28;;;5.68;;
9218;SDS011;4644;48.858;9.184;2023-06-10T01:36:12;5.60;;;5.10;;
9218;SDS011;4644;48.858;9.184;2023-06-10T01:38:43;5.77;;;5.33;;
9218;SDS011;4644;48.858;9.184;2023-06-10T01:41:12;5.70;;;5.20;;
9218;SDS011;4644;48.858;9.184;2023-06-10T01:43:42;6.00;;;5.40;;
9218;SDS011;4644;48.858;9.184;2023-06-10T01:46:09;5.32;;;4.82;;
9218;SDS011;4644;48.858;9.184;2023-06-10T01:48:37;5.50;;;5.00;;
9218;SDS011;4644;48.858;9.184;2023-06-10T01:51:04;5.18;;;4.68;;
9218;SDS011;4644;48.858;9.184;2023-06-10T01:53:31;4.97;;;4.47;;
9218;SDS011;4644;48.858;9.184;2023-06-10T01:55:59;4.90;;;4.45;;
9218;SDS011;4644;48.858;9.184;2023-06-10T01:58:26;5.00;;;4.60;;
9218;SDS011;4644;48.858;9.184;2023-06-10T02:00:53;6.30;;;4.60;;
9218;SDS011;4644;48.858;9.184;2023-06-10T02:03:20;4.80;;;4.40;;
9218;SDS011;4644;48.858;9.184;2023-06-10T02:05:47;4.88;;;4.47;;
9218;SDS011;4644;48.858;9.184;2023-06-10T02:08:14;4.75;;;4.35;;
9218;SDS011;4644;48.858;9.184;2023-06-10T02:10:41;4.93;;;4.47;;
9218;SDS011;4644;48.858;9.184;2023-06-10T02:13:09;5.05;;;4.63;;
9218;SDS011;4644;48.858;9.184;2023-06-10T02:15:36;4.80;;;4.30;;
9218;SDS011;4644;48.858;9.184;2023-06-10T02:18:03;4.60;;;4.20;;
9218;SDS011;4644;48.858;9.184;2023-06-10T02:20:30;5.00;;;4.50;;
9218;SDS011;4644;48.858;9.184;2023-06-10T02:22:58;4.80;;;4.38;;
9218;SDS011;4644;48.858;9.184;2023-06-10T02:25:25;6.82;;;4.35;;
9218;SDS011;4644;48.858;9.184;2023-06-10T02:27:52;5.93;;;4.40;;
9218;SDS011;4644;48.858;9.184;2023-06-10T02:30:20;4.72;;;4.32;;
9218;SDS011;4644;48.858;9.184;2023-06-10T02:32:47;4.25;;;3.88;;
9218;SDS011;4644;48.858;9.184;2023-06-10T02:35:15;4.32;;;3.88;;
9218;SDS011;4644;48.858;9.184;2023-06-10T02:37:42;4.40;;;4.00;;
9218;SDS011;4644;48.858;9.184;2023-06-10T02:40:10;4.13;;;3.77;;
9218;SDS011;4644;48.858;9.184;2023-06-10T02:42:37;4.18;;;3.78;;
9218;SDS011;4644;48.858;9.184;2023-06-10T02:45:05;4.63;;;4.20;;
9218;SDS011;4644;48.858;9.184;2023-06-10T02:47:34;4.13;;;3.80;;
9218;SDS011;4644;48.858;9.184;2023-06-10T02:50:03;5.25;;;4.00;;
9218;SDS011;4644;48.858;9.184;2023-06-10T02:52:31;5.15;;;3.85;;
9218;SDS011;4644;48.858;9.184;2023-06-10T02:54:58;4.47;;;4.07;;
9218;SDS011;4644;48.858;9.184;2023-06-10T02:57:24;5.22;;;3.97;;
9218;SDS011;4644;48.858;9.184;2023-06-10T02:59:51;4.40;;;4.00;;
9218;SDS011;4644;48.858;9.184;2023-06-10T03:02:18;4.97;;;3.80;;
9218;SDS011;4644;48.858;9.184;2023-06-10T03:04:47;5.20;;;4.27;;
9218;SDS011;4644;48.858;9.184;2023-06-10T03:07:15;4.47;;;4.07;;
9218;SDS011;4644;48.858;9.184;2023-06-10T03:09:43;4.60;;;4.20;;
9218;SDS011;4644;48.858;9.184;2023-06-10T03:12:10;4.40;;;4.00;;
9218;SDS011;4644;48.858;9.184;2023-06-10T03:14:37;3.92;;;3.63;;
9218;SDS011;4644;48.858;9.184;2023-06-10T03:17:04;4.00;;;3.65;;
9218;SDS011;4644;48.858;9.184;2023-06-10T03:19:33;4.50;;;4.10;;
9218;SDS011;4644;48.858;9.184;2023-06-10T03:22:08;4.30;;;3.90;;
9218;SDS011;4644;48.858;9.184;2023-06-10T03:24:36;4.10;;;3.80;;
9218;SDS011;4644;48.858;9.184;2023-06-10T03:27:05;4.38;;;3.97;;
9218;SDS011;4644;48.858;9.184;2023-06-10T03:29:33;4.95;;;3.83;;
9218;SDS011;4644;48.858;9.184;2023-06-10T03:32:00;4.60;;;4.10;;
9218;SDS011;4644;48.858;9.184;2023-06-10T03:34:27;4.67;;;4.13;;
9218;SDS011;4644;48.858;9.184;2023-06-10T03:36:54;4.10;;;3.70;;
9218;SDS011;4644;48.858;9.184;2023-06-10T03:39:23;4.37;;;3.97;;
9218;SDS011;4644;48.858;9.184;2023-06-10T03:41:50;4.20;;;3.80;;
9218;SDS011;4644;48.858;9.184;2023-06-10T03:44:17;4.38;;;3.97;;
9218;SDS011;4644;48.858;9.184;2023-06-10T03:46:44;4.13;;;3.83;;
9218;SDS011;4644;48.858;9.184;2023-06-10T03:49:12;4.93;;;3.85;;
9218;SDS011;4644;48.858;9.184;2023-06-10T03:51:40;3.97;;;3.67;;
9218;SDS011;4644;48.858;9.184;2023-06-10T03:54:07;4.95;;;4.45;;
9218;SDS011;4644;48.858;9.184;2023-06-10T03:56:35;5.32;;;4.32;;
9218;SDS011;4644;48.858;9.184;2023-06-10T03:59:02;5.32;;;4.10;;
9218;SDS011;4644;48.858;9.184;2023-06-10T04:01:30;5.97;;;4.88;;
9218;SDS011;4644;48.858;9.184;2023-06-10T04:03:58;5.80;;;5.30;;
9218;SDS011;4644;48.858;9.184;2023-06-10T04:06:26;5.55;;;5.07;;
9218;SDS011;4644;48.858;9.184;2023-06-10T04:08:54;5.80;;;5.30;;
9218;SDS011;4644;48.858;9.184;2023-06-10T04:11:22;6.57;;;5.47;;
9218;SDS011;4644;48.858;9.184;2023-06-10T04:13:53;5.83;;;5.33;;
9218;SDS011;4644;48.858;9.184;2023-06-10T04:16:20;6.05;;;5.45;;
9218;SDS011;4644;48.858;9.184;2023-06-10T04:18:47;7.00;;;5.72;;
9218;SDS011;4644;48.858;9.184;2023-06-10T04:21:14;6.22;;;5.63;;
9218;SDS011;4644;48.858;9.184;2023-06-10T04:23:41;6.28;;;5.68;;
9218;SDS011;4644;48.858;9.184;2023-06-10T04:26:08;7.05;;;5.93;;
9218;SDS011;4644;48.858;9.184;2023-06-10T04:28:37;6.45;;;5.85;;
9218;SDS011;4644;48.858;9.184;2023-06-10T04:31:05;7.00;;;6.30;;
9218;SDS011;4644;48.858;9.184;2023-06-10T04:33:32;7.07;;;6.38;;
9218;SDS011;4644;48.858;9.184;2023-06-10T04:35:59;6.10;;;5.50;;
9218;SDS011;4644;48.858;9.184;2023-06-10T04:38:26;5.90;;;5.30;;
9218;SDS011;4644;48.858;9.184;2023-06-10T04:40:53;5.63;;;5.13;;
9218;SDS011;4644;48.858;9.184;2023-06-10T04:43:20;5.90;;;5.40;;
9218;SDS011;4644;48.858;9.184;2023-06-10T04:45:47;5.35;;;4.85;;
9218;SDS011;4644;48.858;9.184;2023-06-10T04:48:15;14.63;;;7.32;;
9218;SDS011;4644;48.858;9.184;2023-06-10T04:50:42;4.47;;;4.07;;
9218;SDS011;4644;48.858;9.184;2023-06-10T04:53:09;8.70;;;5.78;;
9218;SDS011;4644;48.858;9.184;2023-06-10T04:55:36;50.55;;;9.80;;
9218;SDS011;4644;48.858;9.184;2023-06-10T04:58:03;4.78;;;4.35;;
9218;SDS011;4644;48.858;9.184;2023-06-10T05:00:30;6.70;;;4.45;;
9218;SDS011;4644;48.858;9.184;2023-06-10T05:02:57;4.57;;;4.17;;
9218;SDS011;4644;48.858;9.184;2023-06-10T05:05:25;4.53;;;4.13;;
9218;SDS011;4644;48.858;9.184;2023-06-10T05:07:52;8.00;;;6.00;;
9218;SDS011;4644;48.858;9.184;2023-06-10T05:10:19;6.65;;;4.68;;
9218;SDS011;4644;48.858;9.184;2023-06-10T05:12:46;6.68;;;5.22;;
9218;SDS011;4644;48.858;9.184;2023-06-10T05:15:13;4.50;;;4.10;;
9218;SDS011;4644;48.858;9.184;2023-06-10T05:17:40;4.00;;;3.60;;
9218;SDS011;4644;48.858;9.184;2023-06-10T05:20:07;4.20;;;3.80;;
9218;SDS011;4644;48.858;9.184;2023-06-10T05:22:36;5.23;;;4.10;;
9218;SDS011;4644;48.858;9.184;2023-06-10T05:25:03;9.35;;;4.35;;
9218;SDS011;4644;48.858;9.184;2023-06-10T05:27:30;3.95;;;3.65;;
9218;SDS011;4644;48.858;9.184;2023-06-10T05:29:57;4.13;;;3.78;;
9218;SDS011;4644;48.858;9.184;2023-06-10T05:32:24;3.90;;;3.60;;
9218;SDS011;4644;48.858;9.184;2023-06-10T05:34:51;3.97;;;3.67;;
9218;SDS011;4644;48.858;9.184;2023-06-10T05:37:18;4.50;;;4.10;;
9218;SDS011;4644;48.858;9.184;2023-06-10T05:39:46;4.30;;;3.90;;
9218;SDS011;4644;48.858;9.184;2023-06-10T05:42:13;4.30;;;3.90;;
9218;SDS011;4644;48.858;9.184;2023-06-10T05:44:40;4.25;;;3.85;;
9218;SDS011;4644;48.858;9.184;2023-06-10T05:47:07;4.20;;;3.80;;
9218;SDS011;4644;48.858;9.184;2023-06-10T05:49:34;4.13;;;3.83;;
9218;SDS011;4644;48.858;9.184;2023-06-10T05:52:01;4.20;;;3.90;;
9218;SDS011;4644;48.858;9.184;2023-06-10T05:54:28;4.10;;;3.80;;
9218;SDS011;4644;48.858;9.184;2023-06-10T05:56:56;4.68;;;3.92;;
9218;SDS011;4644;48.858;9.184;2023-06-10T05:59:23;4.90;;;4.15;;
9218;SDS011;4644;48.858;9.184;2023-06-10T06:01:50;4.80;;;4.20;;
9218;SDS011;4644;48.858;9.184;2023-06-10T06:04:17;4.43;;;4.03;;
9218;SDS011;4644;48.858;9.184;2023-06-10T06:06:44;4.40;;;4.00;;
9218;SDS011;4644;48.858;9.184;2023-06-10T06:09:11;4.47;;;4.07;;
9218;SDS011;4644;48.858;9.184;2023-06-10T06:11:38;4.57;;;4.18;;
9218;SDS011;4644;48.858;9.184;2023-06-10T06:14:07;4.65;;;4.20;;
9218;SDS011;4644;48.858;9.184;2023-06-10T06:16:34;4.32;;;3.92;;
9218;SDS011;4644;48.858;9.184;2023-06-10T06:19:01;4.60;;;4.20;;
9218;SDS011;4644;48.858;9.184;2023-06-10T06:21:28;4.63;;;4.22;;
9218;SDS011;4644;48.858;9.184;2023-06-10T06:23:55;4.30;;;4.00;;
9218;SDS011;4644;48.858;9.184;2023-06-10T06:26:22;4.70;;;4.30;;
9218;SDS011;4644;48.858;9.184;2023-06-10T06:28:50;4.35;;;4.05;;
9218;SDS011;4644;48.858;9.184;2023-06-10T06:31:19;4.25;;;3.95;;
9218;SDS011;4644;48.858;9.184;2023-06-10T06:33:46;4.93;;;4.50;;
9218;SDS011;4644;48.858;9.184;2023-06-10T06:36:13;4.90;;;4.50;;
9218;SDS011;4644;48.858;9.184;2023-06-10T06:38:40;4.60;;;4.20;;
9218;SDS011;4644;48.858;9.184;2023-06-10T06:41:07;4.70;;;4.30;;
9218;SDS011;4644;48.858;9.184;2023-06-10T06:43:34;4.50;;;4.10;;
9218;SDS011;4644;48.858;9.184;2023-06-10T06:46:01;4.68;;;4.28;;
9218;SDS011;4644;48.858;9.184;2023-06-10T06:48:29;4.25;;;3.95;;
9218;SDS011;4644;48.858;9.184;2023-06-10T06:50:56;4.38;;;3.95;;
9218;SDS011;4644;48.858;9.184;2023-06-10T06:53:23;4.45;;;4.15;;
9218;SDS011;4644;48.858;9.184;2023-06-10T06:55:50;4.32;;;4.00;;
9218;SDS011;4644;48.858;9.184;2023-06-10T06:58:17;4.95;;;3.90;;
9218;SDS011;4644;48.858;9.184;2023-06-10T07:00:44;4.53;;;3.90;;
9218;SDS011;4644;48.858;9.184;2023-06-10T07:03:11;4.35;;;4.05;;
9218;SDS011;4644;48.858;9.184;2023-06-10T07:05:40;4.13;;;3.83;;
9218;SDS011;4644;48.858;9.184;2023-06-10T07:08:07;4.70;;;4.30;;
9218;SDS011;4644;48.858;9.184;2023-06-10T07:10:34;4.37;;;3.97;;
9218;SDS011;4644;48.858;9.184;2023-06-10T07:13:01;4.20;;;3.88;;
9218;SDS011;4644;48.858;9.184;2023-06-10T07:15:28;4.10;;;3.80;;
9218;SDS011;4644;48.858;9.184;2023-06-10T07:17:55;4.53;;;4.17;;
9218;SDS011;4644;48.858;9.184;2023-06-10T07:20:22;4.70;;;3.85;;
9218;SDS011;4644;48.858;9.184;2023-06-10T07:22:50;4.50;;;4.10;;
9218;SDS011;4644;48.858;9.184;2023-06-10T07:25:18;4.10;;;3.80;;
9218;SDS011;4644;48.858;9.184;2023-06-10T07:27:45;4.40;;;4.00;;
9218;SDS011;4644;48.858;9.184;2023-06-10T07:30:12;4.53;;;4.13;;
9218;SDS011;4644;48.858;9.184;2023-06-10T07:32:39;5.03;;;4.07;;
9218;SDS011;4644;48.858;9.184;2023-06-10T07:35:08;4.70;;;4.30;;
9218;SDS011;4644;48.858;9.184;2023-06-10T07:37:36;5.43;;;4.20;;
9218;SDS011;4644;48.858;9.184;2023-06-10T07:40:04;4.60;;;4.20;;
9218;SDS011;4644;48.858;9.184;2023-06-10T07:42:33;4.95;;;4.20;;
9218;SDS011;4644;48.858;9.184;2023-06-10T07:45:01;4.70;;;4.30;;
9218;SDS011;4644;48.858;9.184;2023-06-10T07:47:28;4.47;;;4.18;;
9218;SDS011;4644;48.858;9.184;2023-06-10T07:49:55;4.32;;;4.03;;
9218;SDS011;4644;48.858;9.184;2023-06-10T07:52:22;5.45;;;4.45;;
9218;SDS011;4644;48.858;9.184;2023-06-10T07:54:49;4.95;;;4.10;;
9218;SDS011;4644;48.858;9.184;2023-06-10T07:57:18;4.68;;;3.97;;
9218;SDS011;4644;48.858;9.184;2023-06-10T07:59:45;4.47;;;4.07;;
9218;SDS011;4644;48.858;9.184;2023-06-10T08:02:12;3.83;;;3.53;;
9218;SDS011;4644;48.858;9.184;2023-06-10T08:04:39;4.70;;;4.30;;
9218;SDS011;4644;48.858;9.184;2023-06-10T08:07:06;5.20;;;4.28;;
9218;SDS011;4644;48.858;9.184;2023-06-10T08:09:33;4.60;;;4.20;;
9218;SDS011;4644;48.858;9.184;2023-06-10T08:12:00;4.82;;;4.40;;
9218;SDS011;4644;48.858;9.184;2023-06-10T08:14:28;4.70;;;4.20;;
9218;SDS011;4644;48.858;9.184;2023-06-10T08:16:55;5.07;;;4.15;;
9218;SDS011;4644;48.858;9.184;2023-06-10T08:19:22;4.63;;;4.22;;
9218;SDS011;4644;48.858;9.184;2023-06-10T08:21:49;4.70;;;4.30;;
9218;SDS011;4644;48.858;9.184;2023-06-10T08:24:16;5.10;;;4.40;;
9218;SDS011;4644;48.858;9.184;2023-06-10T08:26:43;4.40;;;4.10;;
9218;SDS011;4644;48.858;9.184;2023-06-10T08:29:11;4.50;;;4.10;;
9218;SDS011;4644;48.858;9.184;2023-06-10T08:31:42;6.20;;;4.18;;
9218;SDS011;4644;48.858;9.184;2023-06-10T08:34:09;4.60;;;4.30;;
9218;SDS011;4644;48.858;9.184;2023-06-10T08:36:37;4.70;;;4.30;;
9218;SDS011;4644;48.858;9.184;2023-06-10T08:39:04;4.38;;;4.07;;
9218;SDS011;4644;48.858;9.184;2023-06-10T08:41:32;4.80;;;4.40;;
9218;SDS011;4644;48.858;9.184;2023-06-10T08:44:03;4.75;;;4.35;;
9218;SDS011;4644;48.858;9.184;2023-06-10T08:46:39;4.60;;;4.30;;
9218;SDS011;4644;48.858;9.184;2023-06-10T08:49:11;4.60;;;4.20;;
9218;SDS011;4644;48.858;9.184;2023-06-10T08:51:45;5.10;;;4.35;;
9218;SDS011;4644;48.858;9.184;2023-06-10T08:54:17;4.53;;;4.15;;
9218;SDS011;4644;48.858;9.184;2023-06-10T08:56:48;4.15;;;3.80;;
9218;SDS011;4644;48.858;9.184;2023-06-10T08:59:17;4.57;;;4.18;;
9218;SDS011;4644;48.858;9.184;2023-06-10T09:01:47;4.30;;;3.90;;
9218;SDS011;4644;48.858;9.184;2023-06-10T09:04:14;4.43;;;4.13;;
9218;SDS011;4644;48.858;9.184;2023-06-10T09:06:43;4.80;;;4.40;;
9218;SDS011;4644;48.858;9.184;2023-06-10T09:09:11;4.10;;;3.80;;
9218;SDS011;4644;48.858;9.184;2023-06-10T09:11:39;4.15;;;3.75;;
9218;SDS011;4644;48.858;9.184;2023-06-10T09:14:08;4.07;;;3.78;;
9218;SDS011;4644;48.858;9.184;2023-06-10T09:16:37;3.97;;;3.67;;
9218;SDS011;4644;48.858;9.184;2023-06-10T09:19:05;4.35;;;3.95;;
9218;SDS011;4644;48.858;9.184;2023-06-10T09:21:33;4.20;;;3.90;;
9218;SDS011;4644;48.858;9.184;2023-06-10T09:24:01;4.00;;;3.70;;
9218;SDS011;4644;48.858;9.184;2023-06-10T09:26:28;4.13;;;3.83;;
9218;SDS011;4644;48.858;9.184;2023-06-10T09:28:57;3.70;;;3.40;;
9218;SDS011;4644;48.858;9.184;2023-06-10T09:31:28;4.05;;;3.72;;
9218;SDS011;4644;48.858;9.184;2023-06-10T09:34:05;4.05;;;3.75;;
9218;SDS011;4644;48.858;9.184;2023-06-10T09:36:33;4.07;;;3.78;;
9218;SDS011;4644;48.858;9.184;2023-06-10T09:39:01;4.15;;;3.85;;
9218;SDS011;4644;48.858;9.184;2023-06-10T09:41:32;4.00;;;3.67;;
9218;SDS011;4644;48.858;9.184;2023-06-10T09:44:00;5.47;;;3.95;;
9218;SDS011;4644;48.858;9.184;2023-06-10T09:46:30;4.37;;;3.97;;
9218;SDS011;4644;48.858;9.184;2023-06-10T09:48:58;4.18;;;3.83;;
9218;SDS011;4644;48.858;9.184;2023-06-10T09:51:26;4.60;;;4.20;;
9218;SDS011;4644;48.858;9.184;2023-06-10T09:53:53;4.30;;;4.00;;
9218;SDS011;4644;48.858;9.184;2023-06-10T09:56:20;4.40;;;4.10;;
9218;SDS011;4644;48.858;9.184;2023-06-10T09:58:58;5.40;;;3.90;;
9218;SDS011;4644;48.858;9.184;2023-06-10T10:01:25;4.00;;;3.70;;
9218;SDS011;4644;48.858;9.184;2023-06-10T10:03:52;4.13;;;3.78;;
9218;SDS011;4644;48.858;9.184;2023-06-10T10:06:20;6.43;;;3.70;;
9218;SDS011;4644;48.858;9.184;2023-06-10T10:08:48;4.10;;;3.70;;
9218;SDS011;4644;48.858;9.184;2023-06-10T10:11:16;4.05;;;3.75;;
9218;SDS011;4644;48.858;9.184;2023-06-10T10:13:44;3.95;;;3.53;;
9218;SDS011;4644;48.858;9.184;2023-06-10T10:16:14;4.93;;;3.92;;
9218;SDS011;4644;48.858;9.184;2023-06-10T10:18:46;5.00;;;3.63;;
9218;SDS011;4644;48.858;9.184;2023-06-10T10:21:18;4.22;;;3.70;;
9218;SDS011;4644;48.858;9.184;2023-06-10T10:23:51;4.30;;;4.00;;
9218;SDS011;4644;48.858;9.184;2023-06-10T10:26:21;3.85;;;3.55;;
9218;SDS011;4644;48.858;9.184;2023-06-10T10:28:51;4.30;;;3.97;;
9218;SDS011;4644;48.858;9.184;2023-06-10T10:31:24;3.90;;;3.60;;
9218;SDS011;4644;48.858;9.184;2023-06-10T10:33:54;4.57;;;4.18;;
9218;SDS011;4644;48.858;9.184;2023-06-10T10:36:24;4.13;;;3.83;;
9218;SDS011;4644;48.858;9.184;2023-06-10T10:38:53;4.10;;;3.80;;
9218;SDS011;4644;48.858;9.184;2023-06-10T10:41:20;4.10;;;3.80;;
9218;SDS011;4644;48.858;9.184;2023-06-10T10:43:49;4.43;;;4.03;;
9218;SDS011;4644;48.858;9.184;2023-06-10T10:46:17;3.55;;;3.35;;
9218;SDS011;4644;48.858;9.184;2023-06-10T10:48:44;4.10;;;3.70;;
9218;SDS011;4644;48.858;9.184;2023-06-10T10:51:16;4.30;;;3.67;;
9218;SDS011;4644;48.858;9.184;2023-06-10T10:53:43;3.97;;;3.67;;
9218;SDS011;4644;48.858;9.184;2023-06-10T10:56:32;4.00;;;3.70;;
9218;SDS011;4644;48.858;9.184;2023-06-10T10:59:03;4.00;;;3.60;;
9218;SDS011;4644;48.858;9.184;2023-06-10T11:01:39;3.60;;;3.40;;
9218;SDS011;4644;48.858;9.184;2023-06-10T11:04:06;3.83;;;3.53;;
9218;SDS011;4644;48.858;9.184;2023-06-10T11:06:34;3.55;;;3.25;;
9218;SDS011;4644;48.858;9.184;2023-06-10T11:09:01;3.70;;;3.40;;
9218;SDS011;4644;48.858;9.184;2023-06-10T11:11:53;3.58;;;3.28;;
9218;SDS011;4644;48.858;9.184;2023-06-10T11:14:26;3.65;;;3.30;;
9218;SDS011;4644;48.858;9.184;2023-06-10T11:16:56;3.87;;;3.27;;
9218;SDS011;4644;48.858;9.184;2023-06-10T11:19:33;3.58;;;3.28;;
9218;SDS011;4644;48.858;9.184;2023-06-10T11:22:01;3.63;;;3.40;;
9218;SDS011;4644;48.858;9.184;2023-06-10T11:24:29;3.60;;;3.10;;
9218;SDS011;4644;48.858;9.184;2023-06-10T11:32:50;10.02;;;3.60;;
9218;SDS011;4644;48.858;9.184;2023-06-10T11:35:18;4.00;;;3.60;;
9218;SDS011;4644;48.858;9.184;2023-06-10T11:37:46;3.83;;;3.53;;
9218;SDS011;4644;48.858;9.184;2023-06-10T11:40:14;3.55;;;3.28;;
9218;SDS011;4644;48.858;9.184;2023-06-10T11:42:42;3.30;;;3.00;;
9218;SDS011;4644;48.858;9.184;2023-06-10T11:45:14;3.30;;;3.10;;
9218;SDS011;4644;48.858;9.184;2023-06-10T11:47:54;3.53;;;3.23;;
9218;SDS011;4644;48.858;9.184;2023-06-10T11:50:27;3.30;;;3.10;;
9218;SDS011;4644;48.858;9.184;2023-06-10T11:52:55;4.00;;;3.70;;
9218;SDS011;4644;48.858;9.184;2023-06-10T11:55:23;3.90;;;3.60;;
9218;SDS011;4644;48.858;9.184;2023-06-10T11:57:52;3.47;;;3.17;;
9218;SDS011;4644;48.858;9.184;2023-06-10T12:00:22;3.30;;;3.00;;
9218;SDS011;4644;48.858;9.184;2023-06-10T12:02:54;3.20;;;3.00;;
9218;SDS011;4644;48.858;9.184;2023-06-10T12:05:23;5.18;;;3.65;;
9218;SDS011;4644;48.858;9.184;2023-06-10T12:07:50;15.10;;;7.13;;
9218;SDS011;4644;48.858;9.184;2023-06-10T12:10:38;3.65;;;3.33;;
9218;SDS011;4644;48.858;9.184;2023-06-10T12:13:08;3.78;;;3.47;;
9218;SDS011;4644;48.858;9.184;2023-06-10T12:15:35;3.67;;;3.38;;
9218;SDS011;4644;48.858;9.184;2023-06-10T12:18:02;3.57;;;3.37;;
9218;SDS011;4644;48.858;9.184;2023-06-10T12:20:30;3.40;;;3.17;;
9218;SDS011;4644;48.858;9.184;2023-06-10T12:22:59;3.70;;;3.30;;
9218;SDS011;4644;48.858;9.184;2023-06-10T12:25:34;3.50;;;3.30;;
9218;SDS011;4644;48.858;9.184;2023-06-10T12:28:02;3.60;;;3.30;;
9218;SDS011;4644;48.858;9.184;2023-06-10T12:30:30;3.40;;;3.10;;
9218;SDS011;4644;48.858;9.184;2023-06-10T12:32:58;3.53;;;3.22;;
9218;SDS011;4644;48.858;9.184;2023-06-10T12:35:26;3.50;;;3.20;;
9218;SDS011;4644;48.858;9.184;2023-06-10T12:37:54;3.20;;;3.00;;
9218;SDS011;4644;48.858;9.184;2023-06-10T12:40:25;3.10;;;2.90;;
9218;SDS011;4644;48.858;9.184;2023-06-10T12:42:53;4.15;;;3.10;;
9218;SDS011;4644;48.858;9.184;2023-06-10T12:45:27;3.70;;;3.40;;
9218;SDS011;4644;48.858;9.184;2023-06-10T12:48:05;3.25;;;3.03;;
9218;SDS011;4644;48.858;9.184;2023-06-10T12:50:34;3.33;;;3.10;;
9218;SDS011;4644;48.858;9.184;2023-06-10T12:53:02;3.28;;;2.97;;
9218;SDS011;4644;48.858;9.184;2023-06-10T12:55:29;3.50;;;3.20;;
9218;SDS011;4644;48.858;9.184;2023-06-10T12:57:56;3.40;;;3.20;;
9218;SDS011;4644;48.858;9.184;2023-06-10T13:00:23;3.40;;;3.10;;
9218;SDS011;4644;48.858;9.184;2023-06-10T13:02:51;3.20;;;2.90;;
9218;SDS011;4644;48.858;9.184;2023-06-10T13:05:20;3.42;;;3.05;;
9218;SDS011;4644;48.858;9.184;2023-06-10T13:07:47;4.10;;;3.20;;
9218;SDS011;4644;48.858;9.184;2023-06-10T13:10:14;3.20;;;2.90;;
9218;SDS011;4644;48.858;9.184;2023-06-10T13:12:41;3.22;;;3.00;;
9218;SDS011;4644;48.858;9.184;2023-06-10T13:15:09;3.47;;;3.05;;
9218;SDS011;4644;48.858;9.184;2023-06-10T13:17:36;3.63;;;3.20;;
9218;SDS011;4644;48.858;9.184;2023-06-10T13:20:04;3.95;;;2.90;;
9218;SDS011;4644;48.858;9.184;2023-06-10T13:22:35;3.13;;;2.90;;
9218;SDS011;4644;48.858;9.184;2023-06-10T13:25:02;3.78;;;2.80;;
9218;SDS011;4644;48.858;9.184;2023-06-10T13:27:29;3.00;;;2.70;;
9218;SDS011;4644;48.858;9.184;2023-06-10T13:29:56;2.90;;;2.70;;
9218;SDS011;4644;48.858;9.184;2023-06-10T13:32:23;3.05;;;2.75;;
9218;SDS011;4644;48.858;9.184;2023-06-10T13:34:50;4.18;;;3.05;;
9218;SDS011;4644;48.858;9.184;2023-06-10T13:37:19;3.13;;;2.83;;
9218;SDS011;4644;48.858;9.184;2023-06-10T13:39:47;3.83;;;3.03;;
9218;SDS011;4644;48.858;9.184;2023-06-10T13:42:15;3.38;;;3.10;;
9218;SDS011;4644;48.858;9.184;2023-06-10T13:44:42;3.42;;;3.13;;
9218;SDS011;4644;48.858;9.184;2023-06-10T13:47:09;3.10;;;2.90;;
9218;SDS011;4644;48.858;9.184;2023-06-10T13:49:36;3.70;;;3.25;;
9218;SDS011;4644;48.858;9.184;2023-06-10T13:52:04;3.50;;;3.20;;
9218;SDS011;4644;48.858;9.184;2023-06-10T13:54:32;3.65;;;3.10;;
9218;SDS011;4644;48.858;9.184;2023-06-10T13:57:02;3.17;;;2.97;;
9218;SDS011;4644;48.858;9.184;2023-06-10T13:59:29;3.05;;;2.85;;
9218;SDS011;4644;48.858;9.184;2023-06-10T14:01:56;3.38;;;3.15;;
9218;SDS011;4644;48.858;9.184;2023-06-10T14:04:23;3.13;;;2.90;;
9218;SDS011;4644;48.858;9.184;2023-06-10T14:06:50;3.13;;;2.92;;
9218;SDS011;4644;48.858;9.184;2023-06-10T14:09:17;3.33;;;3.13;;
9218;SDS011;4644;48.858;9.184;2023-06-10T14:11:44;3.20;;;3.00;;
9218;SDS011;4644;48.858;9.184;2023-06-10T14:14:12;3.50;;;3.17;;
9218;SDS011;4644;48.858;9.184;2023-06-10T14:16:40;3.70;;;3.28;;
9218;SDS011;4644;48.858;9.184;2023-06-10T14:19:12;3.83;;;3.53;;
9218;SDS011;4644;48.858;9.184;2023-06-10T14:21:39;3.40;;;3.05;;
9218;SDS011;4644;48.858;9.184;2023-06-10T14:24:06;3.60;;;3.15;;
9218;SDS011;4644;48.858;9.184;2023-06-10T14:26:33;3.55;;;3.25;;
9218;SDS011;4644;48.858;9.184;2023-06-10T14:29:00;3.50;;;3.25;;
9218;SDS011;4644;48.858;9.184;2023-06-10T14:31:29;3.30;;;3.10;;
9218;SDS011;4644;48.858;9.184;2023-06-10T14:33:56;3.42;;;3.22;;
9218;SDS011;4644;48.858;9.184;2023-06-10T14:36:23;4.07;;;3.03;;
9218;SDS011;4644;48.858;9.184;2023-06-10T14:38:50;3.38;;;3.08;;
9218;SDS011;4644;48.858;9.184;2023-06-10T14:41:17;4.20;;;3.80;;
9218;SDS011;4644;48.858;9.184;2023-06-10T14:43:44;5.15;;;3.40;;
9218;SDS011;4644;48.858;9.184;2023-06-10T14:46:11;3.20;;;2.95;;
9218;SDS011;4644;48.858;9.184;2023-06-10T14:48:39;3.40;;;3.20;;
9218;SDS011;4644;48.858;9.184;2023-06-10T14:51:06;3.40;;;3.20;;
9218;SDS011;4644;48.858;9.184;2023-06-10T14:53:33;3.55;;;3.30;;
9218;SDS011;4644;48.858;9.184;2023-06-10T14:56:00;6.22;;;3.50;;
9218;SDS011;4644;48.858;9.184;2023-06-10T14:58:27;3.50;;;3.30;;
9218;SDS011;4644;48.858;9.184;2023-06-10T15:00:54;5.17;;;3.33;;
9218;SDS011;4644;48.858;9.184;2023-06-10T15:03:21;3.10;;;2.90;;
9218;SDS011;4644;48.858;9.184;2023-06-10T15:05:50;3.30;;;2.90;;
9218;SDS011;4644;48.858;9.184;2023-06-10T15:08:17;3.10;;;2.90;;
9218;SDS011;4644;48.858;9.184;2023-06-10T15:10:44;3.00;;;2.80;;
9218;SDS011;4644;48.858;9.184;2023-06-10T15:13:13;3.38;;;3.13;;
9218;SDS011;4644;48.858;9.184;2023-06-10T15:15:40;3.10;;;2.90;;
9218;SDS011;4644;48.858;9.184;2023-06-10T15:18:07;5.32;;;2.92;;
9218;SDS011;4644;48.858;9.184;2023-06-10T15:20:34;4.70;;;3.27;;
9218;SDS011;4644;48.858;9.184;2023-06-10T15:23:02;3.42;;;3.22;;
9218;SDS011;4644;48.858;9.184;2023-06-10T15:25:29;3.13;;;2.92;;
9218;SDS011;4644;48.858;9.184;2023-06-10T15:27:56;3.30;;;3.10;;